sensor_id;sensor_type;location;lat;lon;timestamp;temperature;humidity
12901;DHT22;6518;50.930;5.344;2024-03-07T00:00:32;7.70;99.90
12901;DHT22;6518;50.930;5.344;2024-03-07T00:02:59;7.70;99.90
12901;DHT22;6518;50.930;5.344;2024-03-07T00:05:26;7.60;99.90
12901;DHT22;6518;50.930;5.344;2024-03-07T00:07:53;7.60;99.90
12901;DHT22;6518;50.930;5.344;2024-03-07T00:10:20;7.60;99.90
12901;DHT22;6518;50.930;5.344;2024-03-07T00:12:50;7.60;99.90
12901;DHT22;6518;50.930;5.344;2024-03-07T00:15:17;7.60;99.90
12901;DHT22;6518;50.930;5.344;2024-03-07T00:17:44;7.50;99.90
12901;DHT22;6518;50.930;5.344;2024-03-07T00:20:11;7.50;99.90
12901;DHT22;6518;50.930;5.344;2024-03-07T00:22:41;7.50;99.90
12901;DHT22;6518;50.930;5.344;2024-03-07T00:25:08;7.50;99.90
12901;DHT22;6518;50.930;5.344;2024-03-07T00:27:37;7.40;99.90
12901;DHT22;6518;50.930;5.344;2024-03-07T00:30:07;7.40;99.90
12901;DHT22;6518;50.930;5.344;2024-03-07T00:32:35;7.40;99.90
12901;DHT22;6518;50.930;5.344;2024-03-07T00:35:05;7.30;99.90
12901;DHT22;6518;50.930;5.344;2024-03-07T00:37:35;7.30;99.90
12901;DHT22;6518;50.930;5.344;2024-03-07T00:40:02;7.30;99.90
12901;DHT22;6518;50.930;5.344;2024-03-07T00:42:29;7.30;99.90
12901;DHT22;6518;50.930;5.344;2024-03-07T00:44:56;7.30;99.90
12901;DHT22;6518;50.930;5.344;2024-03-07T00:47:25;7.30;99.90
12901;DHT22;6518;50.930;5.344;2024-03-07T00:49:51;7.20;99.90
12901;DHT22;6518;50.930;5.344;2024-03-07T00:52:19;7.20;99.90
12901;DHT22;6518;50.930;5.344;2024-03-07T00:54:46;7.20;99.90
12901;DHT22;6518;50.930;5.344;2024-03-07T00:57:13;7.20;99.90
12901;DHT22;6518;50.930;5.344;2024-03-07T00:59:40;7.20;99.90
12901;DHT22;6518;50.930;5.344;2024-03-07T01:02:07;7.20;99.90
12901;DHT22;6518;50.930;5.344;2024-03-07T01:04:36;7.20;99.90
12901;DHT22;6518;50.930;5.344;2024-03-07T01:07:03;7.10;99.90
12901;DHT22;6518;50.930;5.344;2024-03-07T01:09:30;7.10;99.90
12901;DHT22;6518;50.930;5.344;2024-03-07T01:11:57;7.10;99.90
12901;DHT22;6518;50.930;5.344;2024-03-07T01:14:25;7.10;99.90
12901;DHT22;6518;50.930;5.344;2024-03-07T01:16:52;7.10;99.90
12901;DHT22;6518;50.930;5.344;2024-03-07T01:19:19;7.10;99.90
12901;DHT22;6518;50.930;5.344;2024-03-07T01:21:48;7.00;99.90
12901;DHT22;6518;50.930;5.344;2024-03-07T01:24:14;7.00;99.90
12901;DHT22;6518;50.930;5.344;2024-03-07T01:26:43;7.00;99.90
12901;DHT22;6518;50.930;5.344;2024-03-07T01:29:10;7.00;99.90
12901;DHT22;6518;50.930;5.344;2024-03-07T01:31:37;7.00;99.90
12901;DHT22;6518;50.930;5.344;2024-03-07T01:34:04;6.90;99.90
12901;DHT22;6518;50.930;5.344;2024-03-07T01:36:31;7.00;99.90
12901;DHT22;6518;50.930;5.344;2024-03-07T01:38:59;7.00;99.90
12901;DHT22;6518;50.930;5.344;2024-03-07T01:41:26;7.00;99.90
12901;DHT22;6518;50.930;5.344;2024-03-07T01:43:53;7.00;99.90
12901;DHT22;6518;50.930;5.344;2024-03-07T01:46:20;6.90;99.90
12901;DHT22;6518;50.930;5.344;2024-03-07T01:48:47;6.90;99.90
12901;DHT22;6518;50.930;5.344;2024-03-07T01:51:15;6.90;99.90
12901;DHT22;6518;50.930;5.344;2024-03-07T01:53:42;6.90;99.90
12901;DHT22;6518;50.930;5.344;2024-03-07T01:56:10;6.80;99.90
12901;DHT22;6518;50.930;5.344;2024-03-07T01:58:37;6.90;99.90
12901;DHT22;6518;50.930;5.344;2024-03-07T02:01:04;6.80;99.90
12901;DHT22;6518;50.930;5.344;2024-03-07T02:03:31;6.80;99.90
12901;DHT22;6518;50.930;5.344;2024-03-07T02:05:58;6.80;99.90
12901;DHT22;6518;50.930;5.344;2024-03-07T02:08:26;6.80;99.90
12901;DHT22;6518;50.930;5.344;2024-03-07T02:10:53;6.80;99.90
12901;DHT22;6518;50.930;5.344;2024-03-07T02:13:21;6.80;99.90
12901;DHT22;6518;50.930;5.344;2024-03-07T02:15:48;6.80;99.90
12901;DHT22;6518;50.930;5.344;2024-03-07T02:18:15;6.80;99.90
12901;DHT22;6518;50.930;5.344;2024-03-07T02:20:44;6.80;99.90
12901;DHT22;6518;50.930;5.344;2024-03-07T02:23:12;6.80;99.90
12901;DHT22;6518;50.930;5.344;2024-03-07T02:25:38;6.80;99.90
12901;DHT22;6518;50.930;5.344;2024-03-07T02:28:05;6.80;99.90
12901;DHT22;6518;50.930;5.344;2024-03-07T02:30:32;6.80;99.90
12901;DHT22;6518;50.930;5.344;2024-03-07T02:32:59;6.70;99.90
12901;DHT22;6518;50.930;5.344;2024-03-07T02:35:32;6.70;99.90
12901;DHT22;6518;50.930;5.344;2024-03-07T02:38:02;6.60;99.90
12901;DHT22;6518;50.930;5.344;2024-03-07T02:40:29;6.60;99.90
12901;DHT22;6518;50.930;5.344;2024-03-07T02:42:56;6.50;99.90
12901;DHT22;6518;50.930;5.344;2024-03-07T02:45:24;6.50;99.90
12901;DHT22;6518;50.930;5.344;2024-03-07T02:47:51;6.50;99.90
12901;DHT22;6518;50.930;5.344;2024-03-07T02:50:19;6.50;99.90
12901;DHT22;6518;50.930;5.344;2024-03-07T02:52:47;6.40;99.90
12901;DHT22;6518;50.930;5.344;2024-03-07T02:55:16;6.40;99.90
12901;DHT22;6518;50.930;5.344;2024-03-07T02:57:44;6.40;99.90
12901;DHT22;6518;50.930;5.344;2024-03-07T03:00:12;6.40;99.90
12901;DHT22;6518;50.930;5.344;2024-03-07T03:02:52;6.40;99.90
12901;DHT22;6518;50.930;5.344;2024-03-07T03:05:19;6.40;99.90
12901;DHT22;6518;50.930;5.344;2024-03-07T03:07:46;6.40;99.90
12901;DHT22;6518;50.930;5.344;2024-03-07T03:10:21;6.40;99.90
12901;DHT22;6518;50.930;5.344;2024-03-07T03:12:52;6.40;99.90
12901;DHT22;6518;50.930;5.344;2024-03-07T03:15:20;6.40;99.90
12901;DHT22;6518;50.930;5.344;2024-03-07T03:17:47;6.40;99.90
12901;DHT22;6518;50.930;5.344;2024-03-07T03:20:17;6.40;99.90
12901;DHT22;6518;50.930;5.344;2024-03-07T03:22:51;6.40;99.90
12901;DHT22;6518;50.930;5.344;2024-03-07T03:25:20;6.30;99.90
12901;DHT22;6518;50.930;5.344;2024-03-07T03:27:49;6.30;99.90
12901;DHT22;6518;50.930;5.344;2024-03-07T03:30:16;6.30;99.90
12901;DHT22;6518;50.930;5.344;2024-03-07T03:32:45;6.30;99.90
12901;DHT22;6518;50.930;5.344;2024-03-07T03:35:12;6.30;99.90
12901;DHT22;6518;50.930;5.344;2024-03-07T03:37:40;6.30;99.90
12901;DHT22;6518;50.930;5.344;2024-03-07T03:40:09;6.30;99.90
12901;DHT22;6518;50.930;5.344;2024-03-07T03:42:37;6.20;99.90
12901;DHT22;6518;50.930;5.344;2024-03-07T03:45:05;6.30;99.90
12901;DHT22;6518;50.930;5.344;2024-03-07T03:47:34;6.20;99.90
12901;DHT22;6518;50.930;5.344;2024-03-07T03:50:04;6.20;99.90
12901;DHT22;6518;50.930;5.344;2024-03-07T03:52:32;6.20;99.90
12901;DHT22;6518;50.930;5.344;2024-03-07T03:55:01;6.20;99.90
12901;DHT22;6518;50.930;5.344;2024-03-07T03:57:29;6.20;99.90
12901;DHT22;6518;50.930;5.344;2024-03-07T03:59:58;6.10;99.90
12901;DHT22;6518;50.930;5.344;2024-03-07T04:02:25;6.10;99.90
12901;DHT22;6518;50.930;5.344;2024-03-07T04:04:52;6.10;99.90
12901;DHT22;6518;50.930;5.344;2024-03-07T04:07:20;6.10;99.90
12901;DHT22;6518;50.930;5.344;2024-03-07T04:09:47;6.00;99.90
12901;DHT22;6518;50.930;5.344;2024-03-07T04:12:14;6.00;99.90
12901;DHT22;6518;50.930;5.344;2024-03-07T04:14:42;6.00;99.90
12901;DHT22;6518;50.930;5.344;2024-03-07T04:17:11;6.00;99.90
12901;DHT22;6518;50.930;5.344;2024-03-07T04:19:40;5.90;99.90
12901;DHT22;6518;50.930;5.344;2024-03-07T04:22:07;5.90;99.90
12901;DHT22;6518;50.930;5.344;2024-03-07T04:24:35;5.90;99.90
12901;DHT22;6518;50.930;5.344;2024-03-07T04:27:02;5.90;99.90
12901;DHT22;6518;50.930;5.344;2024-03-07T04:29:30;5.80;99.90
12901;DHT22;6518;50.930;5.344;2024-03-07T04:31:57;5.80;99.90
12901;DHT22;6518;50.930;5.344;2024-03-07T04:34:25;5.80;99.90
12901;DHT22;6518;50.930;5.344;2024-03-07T04:36:53;5.80;99.90
12901;DHT22;6518;50.930;5.344;2024-03-07T04:39:20;5.80;99.90
12901;DHT22;6518;50.930;5.344;2024-03-07T04:41:56;5.60;99.90
12901;DHT22;6518;50.930;5.344;2024-03-07T04:44:23;5.70;99.90
12901;DHT22;6518;50.930;5.344;2024-03-07T04:46:50;5.60;99.90
12901;DHT22;6518;50.930;5.344;2024-03-07T04:49:21;5.60;99.90
12901;DHT22;6518;50.930;5.344;2024-03-07T04:51:51;5.60;99.90
12901;DHT22;6518;50.930;5.344;2024-03-07T04:54:19;5.60;99.90
12901;DHT22;6518;50.930;5.344;2024-03-07T04:56:47;5.60;99.90
12901;DHT22;6518;50.930;5.344;2024-03-07T04:59:14;5.50;99.90
12901;DHT22;6518;50.930;5.344;2024-03-07T05:01:42;5.50;99.90
12901;DHT22;6518;50.930;5.344;2024-03-07T05:04:10;5.50;99.90
12901;DHT22;6518;50.930;5.344;2024-03-07T05:06:38;5.50;99.90
12901;DHT22;6518;50.930;5.344;2024-03-07T05:09:08;5.50;99.90
12901;DHT22;6518;50.930;5.344;2024-03-07T05:11:47;5.50;99.90
12901;DHT22;6518;50.930;5.344;2024-03-07T05:14:14;5.50;99.90
12901;DHT22;6518;50.930;5.344;2024-03-07T05:16:42;5.50;99.90
12901;DHT22;6518;50.930;5.344;2024-03-07T05:19:09;5.50;99.90
12901;DHT22;6518;50.930;5.344;2024-03-07T05:21:36;5.60;99.90
12901;DHT22;6518;50.930;5.344;2024-03-07T05:24:07;5.60;99.90
12901;DHT22;6518;50.930;5.344;2024-03-07T05:26:35;5.60;99.90
12901;DHT22;6518;50.930;5.344;2024-03-07T05:29:05;5.60;99.90
12901;DHT22;6518;50.930;5.344;2024-03-07T05:31:34;5.60;99.90
12901;DHT22;6518;50.930;5.344;2024-03-07T05:34:02;5.60;99.90
12901;DHT22;6518;50.930;5.344;2024-03-07T05:36:31;5.60;99.90
12901;DHT22;6518;50.930;5.344;2024-03-07T05:38:59;5.60;99.90
12901;DHT22;6518;50.930;5.344;2024-03-07T05:41:35;5.60;99.90
12901;DHT22;6518;50.930;5.344;2024-03-07T05:44:02;5.60;99.90
12901;DHT22;6518;50.930;5.344;2024-03-07T05:46:30;5.60;99.90
12901;DHT22;6518;50.930;5.344;2024-03-07T05:48:57;5.70;99.90
12901;DHT22;6518;50.930;5.344;2024-03-07T05:51:25;5.60;99.90
12901;DHT22;6518;50.930;5.344;2024-03-07T05:53:53;5.60;99.90
12901;DHT22;6518;50.930;5.344;2024-03-07T05:56:20;5.60;99.90
12901;DHT22;6518;50.930;5.344;2024-03-07T05:58:49;5.50;99.90
12901;DHT22;6518;50.930;5.344;2024-03-07T06:01:16;5.40;99.90
12901;DHT22;6518;50.930;5.344;2024-03-07T06:03:44;5.40;99.90
12901;DHT22;6518;50.930;5.344;2024-03-07T06:06:11;5.30;99.90
12901;DHT22;6518;50.930;5.344;2024-03-07T06:08:38;5.30;99.90
12901;DHT22;6518;50.930;5.344;2024-03-07T06:11:08;5.30;99.90
12901;DHT22;6518;50.930;5.344;2024-03-07T06:13:35;5.40;99.90
12901;DHT22;6518;50.930;5.344;2024-03-07T06:16:04;5.30;99.90
12901;DHT22;6518;50.930;5.344;2024-03-07T06:18:34;5.30;99.90
12901;DHT22;6518;50.930;5.344;2024-03-07T06:21:01;5.30;99.90
12901;DHT22;6518;50.930;5.344;2024-03-07T06:23:30;5.30;99.90
12901;DHT22;6518;50.930;5.344;2024-03-07T06:25:58;5.30;99.90
12901;DHT22;6518;50.930;5.344;2024-03-07T06:28:26;5.30;99.90
12901;DHT22;6518;50.930;5.344;2024-03-07T06:30:55;5.30;99.90
12901;DHT22;6518;50.930;5.344;2024-03-07T06:33:24;5.30;99.90
12901;DHT22;6518;50.930;5.344;2024-03-07T06:35:52;5.30;99.90
12901;DHT22;6518;50.930;5.344;2024-03-07T06:38:21;5.30;99.90
12901;DHT22;6518;50.930;5.344;2024-03-07T06:40:48;5.30;99.90
12901;DHT22;6518;50.930;5.344;2024-03-07T06:43:15;5.30;99.90
12901;DHT22;6518;50.930;5.344;2024-03-07T06:45:42;5.30;99.90
12901;DHT22;6518;50.930;5.344;2024-03-07T06:48:09;5.30;99.90
12901;DHT22;6518;50.930;5.344;2024-03-07T06:50:37;5.40;99.90
12901;DHT22;6518;50.930;5.344;2024-03-07T06:53:04;5.30;99.90
12901;DHT22;6518;50.930;5.344;2024-03-07T06:55:33;5.40;99.90
12901;DHT22;6518;50.930;5.344;2024-03-07T06:58:00;5.40;99.90
12901;DHT22;6518;50.930;5.344;2024-03-07T07:00:29;5.50;99.90
12901;DHT22;6518;50.930;5.344;2024-03-07T07:02:57;5.50;99.90
12901;DHT22;6518;50.930;5.344;2024-03-07T07:05:24;5.50;99.90
12901;DHT22;6518;50.930;5.344;2024-03-07T07:07:52;5.60;99.90
12901;DHT22;6518;50.930;5.344;2024-03-07T07:10:20;5.60;99.90
12901;DHT22;6518;50.930;5.344;2024-03-07T07:12:49;5.70;99.90
12901;DHT22;6518;50.930;5.344;2024-03-07T07:15:18;5.70;99.90
12901;DHT22;6518;50.930;5.344;2024-03-07T07:17:47;5.70;99.90
12901;DHT22;6518;50.930;5.344;2024-03-07T07:20:15;5.80;99.90
12901;DHT22;6518;50.930;5.344;2024-03-07T07:22:43;5.80;99.90
12901;DHT22;6518;50.930;5.344;2024-03-07T07:25:12;5.80;99.90
12901;DHT22;6518;50.930;5.344;2024-03-07T07:27:40;5.90;99.90
12901;DHT22;6518;50.930;5.344;2024-03-07T07:30:09;5.90;99.90
12901;DHT22;6518;50.930;5.344;2024-03-07T07:32:37;6.00;99.90
12901;DHT22;6518;50.930;5.344;2024-03-07T07:35:04;6.00;99.90
12901;DHT22;6518;50.930;5.344;2024-03-07T07:37:35;6.00;99.90
12901;DHT22;6518;50.930;5.344;2024-03-07T07:40:02;6.10;99.90
12901;DHT22;6518;50.930;5.344;2024-03-07T07:42:31;6.10;99.90
12901;DHT22;6518;50.930;5.344;2024-03-07T07:44:58;6.20;99.90
12901;DHT22;6518;50.930;5.344;2024-03-07T07:47:24;6.30;99.90
12901;DHT22;6518;50.930;5.344;2024-03-07T07:49:51;6.30;99.90
12901;DHT22;6518;50.930;5.344;2024-03-07T07:52:18;6.30;99.90
12901;DHT22;6518;50.930;5.344;2024-03-07T07:54:45;6.40;99.90
12901;DHT22;6518;50.930;5.344;2024-03-07T07:57:12;6.40;99.90
12901;DHT22;6518;50.930;5.344;2024-03-07T07:59:40;6.50;99.90
12901;DHT22;6518;50.930;5.344;2024-03-07T08:02:07;6.50;99.90
12901;DHT22;6518;50.930;5.344;2024-03-07T08:04:34;6.50;99.90
12901;DHT22;6518;50.930;5.344;2024-03-07T08:07:01;6.60;99.90
12901;DHT22;6518;50.930;5.344;2024-03-07T08:09:27;6.60;99.90
12901;DHT22;6518;50.930;5.344;2024-03-07T08:11:54;6.70;99.90
12901;DHT22;6518;50.930;5.344;2024-03-07T08:14:21;6.70;99.90
12901;DHT22;6518;50.930;5.344;2024-03-07T08:16:50;6.80;99.90
12901;DHT22;6518;50.930;5.344;2024-03-07T08:19:17;6.90;99.90
12901;DHT22;6518;50.930;5.344;2024-03-07T08:21:43;6.90;99.90
12901;DHT22;6518;50.930;5.344;2024-03-07T08:24:10;7.00;99.90
12901;DHT22;6518;50.930;5.344;2024-03-07T08:26:37;7.00;99.90
12901;DHT22;6518;50.930;5.344;2024-03-07T08:29:09;7.00;99.90
12901;DHT22;6518;50.930;5.344;2024-03-07T08:31:36;7.10;99.90
12901;DHT22;6518;50.930;5.344;2024-03-07T08:34:06;7.20;99.90
12901;DHT22;6518;50.930;5.344;2024-03-07T08:36:33;7.30;99.90
12901;DHT22;6518;50.930;5.344;2024-03-07T08:39:00;7.30;99.90
12901;DHT22;6518;50.930;5.344;2024-03-07T08:41:28;7.40;99.90
12901;DHT22;6518;50.930;5.344;2024-03-07T08:43:57;7.40;99.90
12901;DHT22;6518;50.930;5.344;2024-03-07T08:46:23;7.50;99.90
12901;DHT22;6518;50.930;5.344;2024-03-07T08:48:53;7.60;99.90
12901;DHT22;6518;50.930;5.344;2024-03-07T08:51:20;7.70;99.90
12901;DHT22;6518;50.930;5.344;2024-03-07T08:53:47;7.70;99.90
12901;DHT22;6518;50.930;5.344;2024-03-07T08:56:13;7.80;99.90
12901;DHT22;6518;50.930;5.344;2024-03-07T08:58:40;7.90;99.90
12901;DHT22;6518;50.930;5.344;2024-03-07T09:01:09;7.90;99.90
12901;DHT22;6518;50.930;5.344;2024-03-07T09:03:36;7.90;99.90
12901;DHT22;6518;50.930;5.344;2024-03-07T09:06:03;8.00;99.90
12901;DHT22;6518;50.930;5.344;2024-03-07T09:08:32;8.00;99.90
12901;DHT22;6518;50.930;5.344;2024-03-07T09:10:59;8.10;99.90
12901;DHT22;6518;50.930;5.344;2024-03-07T09:13:26;8.10;99.90
12901;DHT22;6518;50.930;5.344;2024-03-07T09:15:52;8.20;99.90
12901;DHT22;6518;50.930;5.344;2024-03-07T09:18:19;8.30;99.90
12901;DHT22;6518;50.930;5.344;2024-03-07T09:20:46;8.40;99.90
12901;DHT22;6518;50.930;5.344;2024-03-07T09:23:14;8.40;99.90
12901;DHT22;6518;50.930;5.344;2024-03-07T09:25:43;8.50;99.90
12901;DHT22;6518;50.930;5.344;2024-03-07T09:28:11;8.60;99.90
12901;DHT22;6518;50.930;5.344;2024-03-07T09:30:38;8.70;99.90
12901;DHT22;6518;50.930;5.344;2024-03-07T09:33:05;8.70;99.90
12901;DHT22;6518;50.930;5.344;2024-03-07T09:35:36;8.80;99.90
12901;DHT22;6518;50.930;5.344;2024-03-07T09:38:03;8.90;99.90
12901;DHT22;6518;50.930;5.344;2024-03-07T09:40:32;8.90;99.90
12901;DHT22;6518;50.930;5.344;2024-03-07T09:43:01;9.00;99.90
12901;DHT22;6518;50.930;5.344;2024-03-07T09:45:30;9.10;99.90
12901;DHT22;6518;50.930;5.344;2024-03-07T09:47:58;9.10;99.90
12901;DHT22;6518;50.930;5.344;2024-03-07T09:50:26;9.10;99.90
12901;DHT22;6518;50.930;5.344;2024-03-07T09:52:56;9.10;99.90
12901;DHT22;6518;50.930;5.344;2024-03-07T09:55:25;9.10;99.90
12901;DHT22;6518;50.930;5.344;2024-03-07T09:57:53;9.20;99.90
12901;DHT22;6518;50.930;5.344;2024-03-07T10:00:22;9.30;99.90
12901;DHT22;6518;50.930;5.344;2024-03-07T10:02:57;9.40;99.90
12901;DHT22;6518;50.930;5.344;2024-03-07T10:05:27;9.40;99.90
12901;DHT22;6518;50.930;5.344;2024-03-07T10:07:55;9.40;99.90
12901;DHT22;6518;50.930;5.344;2024-03-07T10:10:21;9.40;99.90
12901;DHT22;6518;50.930;5.344;2024-03-07T10:12:49;9.50;99.90
12901;DHT22;6518;50.930;5.344;2024-03-07T10:15:18;9.60;99.90
12901;DHT22;6518;50.930;5.344;2024-03-07T10:17:46;9.70;99.90
12901;DHT22;6518;50.930;5.344;2024-03-07T10:20:16;9.80;99.00
12901;DHT22;6518;50.930;5.344;2024-03-07T10:22:46;9.80;98.40
12901;DHT22;6518;50.930;5.344;2024-03-07T10:25:17;9.90;96.90
12901;DHT22;6518;50.930;5.344;2024-03-07T10:27:46;9.80;95.60
12901;DHT22;6518;50.930;5.344;2024-03-07T10:30:14;9.80;95.40
12901;DHT22;6518;50.930;5.344;2024-03-07T10:32:47;9.90;95.70
12901;DHT22;6518;50.930;5.344;2024-03-07T10:35:20;10.10;95.60
12901;DHT22;6518;50.930;5.344;2024-03-07T10:37:48;10.10;94.90
12901;DHT22;6518;50.930;5.344;2024-03-07T10:40:15;10.20;94.40
12901;DHT22;6518;50.930;5.344;2024-03-07T10:42:45;10.30;94.30
12901;DHT22;6518;50.930;5.344;2024-03-07T10:45:18;10.30;93.40
12901;DHT22;6518;50.930;5.344;2024-03-07T10:47:53;10.30;93.30
12901;DHT22;6518;50.930;5.344;2024-03-07T10:50:30;10.40;92.90
12901;DHT22;6518;50.930;5.344;2024-03-07T10:53:19;10.40;92.40
12901;DHT22;6518;50.930;5.344;2024-03-07T10:55:56;10.40;91.10
12901;DHT22;6518;50.930;5.344;2024-03-07T10:58:32;10.30;90.70
12901;DHT22;6518;50.930;5.344;2024-03-07T11:01:04;10.30;90.80
12901;DHT22;6518;50.930;5.344;2024-03-07T11:03:35;10.30;91.00
12901;DHT22;6518;50.930;5.344;2024-03-07T11:06:02;10.30;90.60
12901;DHT22;6518;50.930;5.344;2024-03-07T11:08:32;10.30;90.40
12901;DHT22;6518;50.930;5.344;2024-03-07T11:11:00;10.20;90.30
12901;DHT22;6518;50.930;5.344;2024-03-07T11:13:28;10.20;90.70
12901;DHT22;6518;50.930;5.344;2024-03-07T11:15:56;10.10;90.10
12901;DHT22;6518;50.930;5.344;2024-03-07T11:18:25;10.00;89.40
12901;DHT22;6518;50.930;5.344;2024-03-07T11:20:54;10.00;88.00
12901;DHT22;6518;50.930;5.344;2024-03-07T11:23:26;10.00;88.10
12901;DHT22;6518;50.930;5.344;2024-03-07T11:25:55;10.10;87.90
12901;DHT22;6518;50.930;5.344;2024-03-07T11:28:29;10.10;87.60
12901;DHT22;6518;50.930;5.344;2024-03-07T11:31:14;10.10;86.50
12901;DHT22;6518;50.930;5.344;2024-03-07T11:33:42;10.20;85.00
12901;DHT22;6518;50.930;5.344;2024-03-07T11:36:11;10.10;85.90
12901;DHT22;6518;50.930;5.344;2024-03-07T11:38:42;10.20;84.20
12901;DHT22;6518;50.930;5.344;2024-03-07T11:41:10;10.20;83.70
12901;DHT22;6518;50.930;5.344;2024-03-07T11:43:39;10.10;82.80
12901;DHT22;6518;50.930;5.344;2024-03-07T11:46:08;10.10;82.40
12901;DHT22;6518;50.930;5.344;2024-03-07T11:48:39;10.20;82.10
12901;DHT22;6518;50.930;5.344;2024-03-07T11:51:13;10.20;82.20
12901;DHT22;6518;50.930;5.344;2024-03-07T11:53:40;10.30;81.70
12901;DHT22;6518;50.930;5.344;2024-03-07T11:56:07;10.20;79.80
12901;DHT22;6518;50.930;5.344;2024-03-07T11:58:43;10.10;79.70
12901;DHT22;6518;50.930;5.344;2024-03-07T12:01:10;10.20;80.20
12901;DHT22;6518;50.930;5.344;2024-03-07T12:03:39;10.30;80.00
12901;DHT22;6518;50.930;5.344;2024-03-07T12:06:07;10.50;78.20
12901;DHT22;6518;50.930;5.344;2024-03-07T12:08:39;10.60;77.70
12901;DHT22;6518;50.930;5.344;2024-03-07T12:11:07;10.70;77.30
12901;DHT22;6518;50.930;5.344;2024-03-07T12:13:38;10.80;76.40
12901;DHT22;6518;50.930;5.344;2024-03-07T12:16:06;10.90;75.60
12901;DHT22;6518;50.930;5.344;2024-03-07T12:18:34;11.00;75.50
12901;DHT22;6518;50.930;5.344;2024-03-07T12:21:02;11.00;75.10
12901;DHT22;6518;50.930;5.344;2024-03-07T12:23:32;11.00;75.00
12901;DHT22;6518;50.930;5.344;2024-03-07T12:26:01;11.00;75.20
12901;DHT22;6518;50.930;5.344;2024-03-07T12:28:28;11.10;74.90
12901;DHT22;6518;50.930;5.344;2024-03-07T12:30:59;11.20;74.00
12901;DHT22;6518;50.930;5.344;2024-03-07T12:33:29;11.20;72.50
12901;DHT22;6518;50.930;5.344;2024-03-07T12:36:01;11.10;72.50
12901;DHT22;6518;50.930;5.344;2024-03-07T12:38:31;10.90;72.40
12901;DHT22;6518;50.930;5.344;2024-03-07T12:41:06;10.80;72.10
12901;DHT22;6518;50.930;5.344;2024-03-07T12:43:40;10.70;72.50
12901;DHT22;6518;50.930;5.344;2024-03-07T12:46:10;10.70;71.80
12901;DHT22;6518;50.930;5.344;2024-03-07T12:48:38;10.50;71.60
12901;DHT22;6518;50.930;5.344;2024-03-07T12:51:05;10.50;71.80
12901;DHT22;6518;50.930;5.344;2024-03-07T12:53:32;10.50;73.50
12901;DHT22;6518;50.930;5.344;2024-03-07T12:56:00;10.50;73.20
12901;DHT22;6518;50.930;5.344;2024-03-07T12:58:29;10.50;72.60
12901;DHT22;6518;50.930;5.344;2024-03-07T13:00:58;10.60;72.20
12901;DHT22;6518;50.930;5.344;2024-03-07T13:03:26;10.60;72.10
12901;DHT22;6518;50.930;5.344;2024-03-07T13:05:55;10.60;71.50
12901;DHT22;6518;50.930;5.344;2024-03-07T13:08:26;10.60;71.60
12901;DHT22;6518;50.930;5.344;2024-03-07T13:10:55;10.60;71.40
12901;DHT22;6518;50.930;5.344;2024-03-07T13:13:24;10.60;71.90
12901;DHT22;6518;50.930;5.344;2024-03-07T13:15:52;10.60;72.10
12901;DHT22;6518;50.930;5.344;2024-03-07T13:18:21;10.70;71.80
12901;DHT22;6518;50.930;5.344;2024-03-07T13:20:48;10.70;71.20
12901;DHT22;6518;50.930;5.344;2024-03-07T13:23:15;10.60;70.80
12901;DHT22;6518;50.930;5.344;2024-03-07T13:25:42;10.50;71.00
12901;DHT22;6518;50.930;5.344;2024-03-07T13:28:12;10.50;70.90
12901;DHT22;6518;50.930;5.344;2024-03-07T13:30:43;10.50;71.20
12901;DHT22;6518;50.930;5.344;2024-03-07T13:33:11;10.50;71.20
12901;DHT22;6518;50.930;5.344;2024-03-07T13:35:39;10.60;71.10
12901;DHT22;6518;50.930;5.344;2024-03-07T13:38:07;10.60;71.30
12901;DHT22;6518;50.930;5.344;2024-03-07T13:40:35;10.70;71.00
12901;DHT22;6518;50.930;5.344;2024-03-07T13:43:04;10.70;70.70
12901;DHT22;6518;50.930;5.344;2024-03-07T13:45:33;10.70;70.80
12901;DHT22;6518;50.930;5.344;2024-03-07T13:48:05;10.70;70.50
12901;DHT22;6518;50.930;5.344;2024-03-07T13:50:35;10.80;69.80
12901;DHT22;6518;50.930;5.344;2024-03-07T13:53:03;10.50;69.90
12901;DHT22;6518;50.930;5.344;2024-03-07T13:55:53;10.80;70.00
12901;DHT22;6518;50.930;5.344;2024-03-07T13:58:34;10.80;70.30
12901;DHT22;6518;50.930;5.344;2024-03-07T14:01:16;10.90;69.90
12901;DHT22;6518;50.930;5.344;2024-03-07T14:07:29;10.90;68.00
12901;DHT22;6518;50.930;5.344;2024-03-07T14:10:25;10.90;68.50
12901;DHT22;6518;50.930;5.344;2024-03-07T14:13:18;10.90;68.80
12901;DHT22;6518;50.930;5.344;2024-03-07T14:22:21;11.10;67.80
12901;DHT22;6518;50.930;5.344;2024-03-07T14:25:19;11.10;68.10
12901;DHT22;6518;50.930;5.344;2024-03-07T14:27:59;10.90;68.40
12901;DHT22;6518;50.930;5.344;2024-03-07T14:30:39;11.10;68.00
12901;DHT22;6518;50.930;5.344;2024-03-07T14:33:09;11.20;68.20
12901;DHT22;6518;50.930;5.344;2024-03-07T14:35:58;11.20;68.30
12901;DHT22;6518;50.930;5.344;2024-03-07T14:38:29;11.30;68.10
12901;DHT22;6518;50.930;5.344;2024-03-07T14:40:57;11.30;68.20
12901;DHT22;6518;50.930;5.344;2024-03-07T14:43:24;11.30;67.30
12901;DHT22;6518;50.930;5.344;2024-03-07T14:45:51;11.30;67.10
12901;DHT22;6518;50.930;5.344;2024-03-07T14:48:21;11.30;67.30
12901;DHT22;6518;50.930;5.344;2024-03-07T14:50:48;11.30;67.30
12901;DHT22;6518;50.930;5.344;2024-03-07T14:53:15;11.30;66.90
12901;DHT22;6518;50.930;5.344;2024-03-07T14:55:45;11.30;67.70
12901;DHT22;6518;50.930;5.344;2024-03-07T14:58:13;11.30;67.20
12901;DHT22;6518;50.930;5.344;2024-03-07T15:00:42;11.40;67.00
12901;DHT22;6518;50.930;5.344;2024-03-07T15:03:10;11.30;67.50
12901;DHT22;6518;50.930;5.344;2024-03-07T15:05:40;11.40;67.40
12901;DHT22;6518;50.930;5.344;2024-03-07T15:08:07;11.40;67.20
12901;DHT22;6518;50.930;5.344;2024-03-07T15:10:36;11.40;66.90
12901;DHT22;6518;50.930;5.344;2024-03-07T15:13:05;11.30;66.90
12901;DHT22;6518;50.930;5.344;2024-03-07T15:15:34;11.30;66.40
12901;DHT22;6518;50.930;5.344;2024-03-07T15:18:01;11.30;67.00
12901;DHT22;6518;50.930;5.344;2024-03-07T15:20:28;11.40;67.20
12901;DHT22;6518;50.930;5.344;2024-03-07T15:22:58;11.40;67.10
12901;DHT22;6518;50.930;5.344;2024-03-07T15:25:26;11.40;66.90
12901;DHT22;6518;50.930;5.344;2024-03-07T15:27:57;11.00;66.20
12901;DHT22;6518;50.930;5.344;2024-03-07T15:30:27;11.40;66.80
12901;DHT22;6518;50.930;5.344;2024-03-07T15:32:58;11.40;67.10
12901;DHT22;6518;50.930;5.344;2024-03-07T15:35:25;11.50;66.80
12901;DHT22;6518;50.930;5.344;2024-03-07T15:37:52;11.40;66.80
12901;DHT22;6518;50.930;5.344;2024-03-07T15:40:20;11.50;66.70
12901;DHT22;6518;50.930;5.344;2024-03-07T15:42:50;11.50;67.60
12901;DHT22;6518;50.930;5.344;2024-03-07T15:45:18;11.50;67.00
12901;DHT22;6518;50.930;5.344;2024-03-07T15:47:49;11.50;67.00
12901;DHT22;6518;50.930;5.344;2024-03-07T15:50:16;11.50;67.10
12901;DHT22;6518;50.930;5.344;2024-03-07T15:52:45;11.50;67.40
12901;DHT22;6518;50.930;5.344;2024-03-07T15:55:13;11.50;67.60
12901;DHT22;6518;50.930;5.344;2024-03-07T15:57:44;11.40;67.70
12901;DHT22;6518;50.930;5.344;2024-03-07T16:00:14;11.40;68.20
12901;DHT22;6518;50.930;5.344;2024-03-07T16:02:52;11.30;68.60
12901;DHT22;6518;50.930;5.344;2024-03-07T16:05:20;11.30;69.00
12901;DHT22;6518;50.930;5.344;2024-03-07T16:07:49;11.20;69.50
12901;DHT22;6518;50.930;5.344;2024-03-07T16:10:17;11.20;69.70
12901;DHT22;6518;50.930;5.344;2024-03-07T16:12:44;11.10;69.70
12901;DHT22;6518;50.930;5.344;2024-03-07T16:15:11;11.10;69.70
12901;DHT22;6518;50.930;5.344;2024-03-07T16:17:38;11.00;70.60